Second Mesa, Arizona
Current Conditions -  °F | °C
As of 8:56 AM on Tuesday 21 Oct 2014 (Local Time) from KINW Reporting Station
Clear Clear  
Wind Chill: 58°   Ceiling: Unl
Heat Index: 58°   Visibility: 10mi
Dew Point: 44°   Wind: 9mph
Humidity: 60%   Direction: 90°E
Pressure: 30.13"   Gusts: NA
Location:  35.82°N, 110.5°W
Report Text: KINW 211556Z AUTO 09008KT 10SM CLR 14/07 A3013 RMK AO2 SLP161 T01440067
Loading
Personal Weather Stations






























Interactive Weather Map New forecast layout! Learn more

10-Day Weather Forecast

Advertisements
Track Severe Weather on mobile